createdAt,value
2018-08-04T00:01:12.745Z,62.99
2018-08-04T00:03:41.121Z,61.47
2018-08-04T00:06:08.407Z,59.31
2018-08-04T00:08:35.552Z,61.06
2018-08-04T00:11:02.687Z,59.31
2018-08-04T00:13:29.978Z,58.25
2018-08-04T00:15:57.486Z,58.24
2018-08-04T00:18:25.013Z,58.74
2018-08-04T00:20:53.335Z,57.84
2018-08-04T00:23:22.029Z,57.90
2018-08-04T00:25:49.785Z,57.01
2018-08-04T00:28:16.935Z,57.97
2018-08-04T00:30:44.104Z,57.33
2018-08-04T00:33:12.768Z,58.03
2018-08-04T00:35:40.021Z,57.41
2018-08-04T00:38:07.283Z,57.51
2018-08-04T00:40:34.791Z,57.07
2018-08-04T00:43:02.068Z,58.41
2018-08-04T00:45:29.511Z,58.85
2018-08-04T00:47:57.089Z,58.42
2018-08-04T00:50:24.953Z,59.33
2018-08-04T00:52:52.851Z,59.65
2018-08-04T00:55:21.098Z,59.80
2018-08-04T00:57:48.314Z,60.71
2018-08-04T01:00:15.445Z,60.49
2018-08-04T01:02:42.790Z,61.36
2018-08-04T01:05:09.920Z,62.33
2018-08-04T01:07:37.091Z,63.42
2018-08-04T01:10:04.839Z,66.20
2018-08-04T01:12:32.504Z,64.97
2018-08-04T01:15:00.024Z,63.11
2018-08-04T01:17:27.322Z,62.36
2018-08-04T01:19:54.960Z,64.27
2018-08-04T01:22:22.413Z,62.66
2018-08-04T01:24:49.975Z,62.46
2018-08-04T01:27:17.871Z,60.38
2018-08-04T01:29:46.050Z,60.86
2018-08-04T01:32:14.460Z,62.99
2018-08-04T01:34:41.617Z,62.38
2018-08-04T01:37:08.760Z,62.90
2018-08-04T01:39:36.027Z,65.17
2018-08-04T01:42:03.204Z,63.39
2018-08-04T01:44:30.352Z,63.72
2018-08-04T01:46:57.647Z,65.00
2018-08-04T01:49:25.104Z,65.88
2018-08-04T01:51:52.765Z,65.52
2018-08-04T01:54:20.338Z,68.16
2018-08-04T01:56:48.192Z,67.58
2018-08-04T01:59:16.192Z,67.16
2018-08-04T02:01:43.574Z,67.61
2018-08-04T02:04:15.261Z,68.77
2018-08-04T02:06:45.829Z,69.06
2018-08-04T02:09:13.217Z,69.81
2018-08-04T02:11:46.399Z,69.36
2018-08-04T02:14:13.913Z,69.40
2018-08-04T02:16:41.107Z,67.10
2018-08-04T02:19:08.411Z,69.16
2018-08-04T02:21:35.594Z,68.07
2018-08-04T02:24:02.741Z,67.54
2018-08-04T02:26:30.443Z,70.67
2018-08-04T02:28:58.053Z,70.51
2018-08-04T02:31:25.594Z,70.82
2018-08-04T02:33:53.535Z,71.57
2018-08-04T02:36:21.495Z,70.16
2018-08-04T02:38:48.688Z,71.18
2018-08-04T02:41:15.900Z,72.37
2018-08-04T02:43:43.067Z,71.87
2018-08-04T02:46:10.193Z,70.40
2018-08-04T02:48:37.345Z,71.44
2018-08-04T02:51:04.691Z,72.34
2018-08-04T02:53:32.088Z,73.47
2018-08-04T02:55:59.884Z,72.78
2018-08-04T02:58:27.313Z,72.74
2018-08-04T03:00:54.855Z,73.71
2018-08-04T03:03:23.216Z,73.68
2018-08-04T03:05:51.328Z,74.04
2018-08-04T03:08:18.464Z,73.56
2018-08-04T03:10:45.596Z,74.91
2018-08-04T03:13:13.219Z,73.49
2018-08-04T03:15:40.400Z,74.09
2018-08-04T03:18:07.584Z,74.96
2018-08-04T03:20:34.693Z,74.69
2018-08-04T03:23:02.000Z,73.96
2018-08-04T03:25:29.743Z,75.38
2018-08-04T03:27:57.249Z,74.30
2018-08-04T03:30:25.232Z,74.86
2018-08-04T03:32:52.960Z,75.21
2018-08-04T03:35:20.848Z,75.83
2018-08-04T03:37:48.518Z,77.60
2018-08-04T03:40:15.719Z,77.15
2018-08-04T03:42:42.896Z,75.46
2018-08-04T03:45:10.075Z,76.28
2018-08-04T03:47:37.226Z,76.57
2018-08-04T03:50:04.980Z,76.96
2018-08-04T03:52:32.174Z,77.78
2018-08-04T03:54:59.557Z,78.42
2018-08-04T03:57:26.956Z,78.98
2018-08-04T03:59:54.360Z,78.20
2018-08-04T04:02:22.251Z,78.22
2018-08-04T04:04:50.126Z,78.46
2018-08-04T04:07:17.522Z,78.51
2018-08-04T04:09:44.670Z,79.64
2018-08-04T04:12:11.864Z,78.99
2018-08-04T04:14:39.009Z,79.68
2018-08-04T04:17:06.166Z,79.75
2018-08-04T04:19:33.391Z,78.85
2018-08-04T04:22:00.963Z,78.32
2018-08-04T04:24:28.456Z,77.26
2018-08-04T04:26:55.708Z,77.97
2018-08-04T04:29:25.106Z,79.61
2018-08-04T04:31:52.796Z,78.80
2018-08-04T04:34:19.999Z,79.53
2018-08-04T04:36:47.164Z,80.28
2018-08-04T04:39:14.251Z,79.91
2018-08-04T04:41:41.484Z,78.66
2018-08-04T04:44:08.856Z,77.76
2018-08-04T04:46:37.140Z,77.39
2018-08-04T04:49:05.259Z,76.88
2018-08-04T04:51:32.932Z,77.17
2018-08-04T04:54:00.590Z,77.45
2018-08-04T04:56:28.339Z,77.67
2018-08-04T04:58:55.940Z,75.81
2018-08-04T05:01:24.302Z,75.97
2018-08-04T05:03:51.726Z,74.78
2018-08-04T05:06:18.908Z,74.49
2018-08-04T05:08:46.064Z,73.51
2018-08-04T05:11:13.245Z,73.64
2018-08-04T05:13:40.529Z,72.75
2018-08-04T05:16:07.676Z,71.94
2018-08-04T05:18:35.029Z,72.50
2018-08-04T05:21:02.719Z,71.80
2018-08-04T05:23:30.240Z,71.27
2018-08-04T05:25:57.859Z,71.14
2018-08-04T05:28:25.548Z,70.40
2018-08-04T05:30:53.023Z,70.39
2018-08-04T05:33:20.380Z,70.15
2018-08-04T05:35:47.711Z,68.49
2018-08-04T05:38:14.831Z,65.29
2018-08-04T05:40:42.047Z,67.39
2018-08-04T05:43:09.300Z,62.06
2018-08-04T05:45:36.444Z,61.72
2018-08-04T05:48:04.105Z,62.21
2018-08-04T05:50:31.923Z,63.66
2018-08-04T05:52:59.443Z,61.90
2018-08-04T05:55:27.087Z,61.57
2018-08-04T05:57:56.004Z,62.66
2018-08-04T06:00:24.807Z,61.33
2018-08-04T06:02:52.739Z,62.76
2018-08-04T06:05:19.978Z,59.58
2018-08-04T06:07:47.120Z,60.57
2018-08-04T06:10:14.298Z,60.74
2018-08-04T06:12:41.482Z,61.01
2018-08-04T06:15:08.606Z,58.25
2018-08-04T06:17:35.771Z,56.75
2018-08-04T06:20:03.435Z,56.87
2018-08-04T06:22:31.070Z,58.31
2018-08-04T06:24:58.646Z,57.69
2018-08-04T06:27:26.841Z,56.35
2018-08-04T06:29:54.621Z,56.57
2018-08-04T06:32:21.766Z,55.62
2018-08-04T06:34:49.044Z,54.88
2018-08-04T06:37:16.515Z,52.39
2018-08-04T06:39:44.016Z,51.12
2018-08-04T06:42:11.519Z,52.13
2018-08-04T06:44:39.049Z,51.10
2018-08-04T06:47:07.111Z,50.52
2018-08-04T06:49:35.188Z,49.27
2018-08-04T06:52:02.754Z,50.48
2018-08-04T06:54:30.224Z,50.69
2018-08-04T06:56:57.561Z,49.73
2018-08-04T06:59:24.872Z,48.58
2018-08-04T07:01:52.065Z,47.83
2018-08-04T07:06:53.071Z,47.41
2018-08-04T07:09:20.277Z,46.25
2018-08-04T07:11:47.538Z,48.42
2018-08-04T07:14:15.061Z,46.56
2018-08-04T07:16:42.492Z,46.97
2018-08-04T07:19:10.047Z,46.14
2018-08-04T07:21:38.358Z,46.98
2018-08-04T07:24:06.622Z,46.12
2018-08-04T07:26:34.664Z,45.78
2018-08-04T07:29:02.233Z,45.26
2018-08-04T07:31:30.606Z,45.30
2018-08-04T07:33:58.295Z,44.05
2018-08-04T07:36:26.430Z,44.20
2018-08-04T07:38:58.791Z,45.43
2018-08-04T07:41:26.925Z,45.19
2018-08-04T07:43:54.915Z,43.42
2018-08-04T07:46:25.385Z,43.64
2018-08-04T07:48:52.729Z,45.22
2018-08-04T07:51:26.623Z,44.86
2018-08-04T07:53:54.634Z,43.12
2018-08-04T07:56:22.106Z,41.98
2018-08-04T07:58:49.215Z,43.63
2018-08-04T08:01:16.472Z,40.30
2018-08-04T08:03:43.615Z,40.91
2018-08-04T08:06:10.733Z,42.39
2018-08-04T08:08:38.087Z,41.19
2018-08-04T08:11:05.798Z,40.06
2018-08-04T08:13:33.575Z,38.28
2018-08-04T08:16:01.258Z,36.99
2018-08-04T08:18:29.328Z,39.02
2018-08-04T08:20:57.422Z,41.68
2018-08-04T08:23:26.460Z,41.10
2018-08-04T08:26:05.920Z,40.26
2018-08-04T08:28:33.592Z,38.26
2018-08-04T08:31:01.240Z,35.46
2018-08-04T08:33:29.521Z,33.95
2018-08-04T08:35:57.891Z,35.80
2018-08-04T08:38:26.170Z,39.20
2018-08-04T08:40:54.323Z,33.07
2018-08-04T08:43:21.477Z,38.12
2018-08-04T08:45:48.785Z,34.72
2018-08-04T08:48:16.052Z,32.52
2018-08-04T08:50:43.209Z,31.94
2018-08-04T08:53:10.455Z,32.09
2018-08-04T08:55:37.719Z,31.88
2018-08-04T08:58:05.780Z,32.05
2018-08-04T09:00:33.423Z,31.93
2018-08-04T09:03:01.361Z,31.94
2018-08-04T09:05:29.336Z,31.23
2018-08-04T09:07:57.747Z,33.05
2018-08-04T09:10:26.270Z,33.93
2018-08-04T09:12:56.169Z,30.22
2018-08-04T09:15:24.068Z,30.29
2018-08-04T09:17:51.886Z,35.30
2018-08-04T09:20:19.031Z,33.47
2018-08-04T09:22:51.871Z,29.42
2018-08-04T09:25:19.166Z,33.00
2018-08-04T09:27:46.852Z,31.23
2018-08-04T09:30:14.829Z,27.80
2018-08-04T09:32:43.457Z,30.05
2018-08-04T09:35:12.464Z,27.58
2018-08-04T09:37:39.725Z,29.22
2018-08-04T09:40:09.564Z,28.51
2018-08-04T09:42:36.973Z,28.26
2018-08-04T09:45:06.284Z,28.46
2018-08-04T09:47:34.916Z,25.97
2018-08-04T09:50:02.629Z,29.04
2018-08-04T09:52:31.046Z,28.32
2018-08-04T09:54:59.216Z,28.81
2018-08-04T09:57:27.827Z,25.10
2018-08-04T09:59:57.266Z,30.25
2018-08-04T10:02:26.747Z,29.30
2018-08-04T10:04:55.766Z,26.36
2018-08-04T10:07:23.245Z,27.83
2018-08-04T10:09:51.074Z,28.40
2018-08-04T10:12:18.264Z,23.18
2018-08-04T10:14:45.688Z,28.52
2018-08-04T10:17:13.004Z,28.30
2018-08-04T10:19:40.940Z,28.74
2018-08-04T10:22:08.271Z,27.96
2018-08-04T10:24:41.279Z,23.04
2018-08-04T10:27:08.677Z,21.86
2018-08-04T10:29:36.700Z,22.09
2018-08-04T10:32:04.509Z,23.32
2018-08-04T10:34:32.262Z,23.00
2018-08-04T10:36:59.994Z,22.02
2018-08-04T10:39:28.282Z,22.32
2018-08-04T10:41:57.480Z,26.47
2018-08-04T10:44:25.978Z,22.18
2018-08-04T10:46:54.391Z,21.81
2018-08-04T10:49:21.830Z,23.06
2018-08-04T10:51:49.128Z,23.61
2018-08-04T10:54:16.648Z,27.19
2018-08-04T10:56:43.835Z,31.54
2018-08-04T10:59:11.020Z,29.75
2018-08-04T11:01:38.344Z,31.66
2018-08-04T11:04:06.220Z,27.17
2018-08-04T11:06:33.861Z,24.46
2018-08-04T11:09:02.172Z,23.08
2018-08-04T11:11:29.896Z,27.77
2018-08-04T11:13:58.179Z,24.22
2018-08-04T11:16:26.060Z,26.80
2018-08-04T11:18:55.571Z,27.25
2018-08-04T11:21:22.900Z,25.48
2018-08-04T11:23:50.061Z,28.65
2018-08-04T11:26:17.248Z,28.09
2018-08-04T11:31:47.983Z,28.04
2018-08-04T11:34:15.584Z,30.76
2018-08-04T11:36:42.708Z,28.51
2018-08-04T11:39:12.239Z,26.24
2018-08-04T11:41:39.424Z,28.09
2018-08-04T11:44:06.863Z,28.35
2018-08-04T11:46:34.020Z,30.77
2018-08-04T11:49:01.180Z,28.07
2018-08-04T11:51:28.362Z,23.45
2018-08-04T11:53:55.500Z,25.16
2018-08-04T11:56:22.851Z,24.36
2018-08-04T11:58:50.009Z,23.75
2018-08-04T12:01:17.175Z,28.18
2018-08-04T12:03:44.344Z,27.89
2018-08-04T12:06:11.489Z,29.04
2018-08-04T12:08:38.792Z,28.21
2018-08-04T12:11:06.162Z,27.97
2018-08-04T12:13:33.271Z,23.75
2018-08-04T12:16:00.417Z,24.74
2018-08-04T12:18:27.514Z,26.18
2018-08-04T12:20:54.798Z,24.04
2018-08-04T12:23:21.942Z,22.23
2018-08-04T12:25:49.050Z,25.04
2018-08-04T12:28:16.267Z,25.44
2018-08-04T12:30:43.497Z,24.30
2018-08-04T12:33:10.773Z,21.86
2018-08-04T12:35:37.904Z,21.93
2018-08-04T12:38:05.039Z,26.80
2018-08-04T12:40:32.232Z,30.05
2018-08-04T12:42:59.368Z,26.64
2018-08-04T12:45:26.694Z,25.04
2018-08-04T12:47:54.145Z,28.79
2018-08-04T12:50:21.329Z,24.55
2018-08-04T12:52:48.712Z,25.37
2018-08-04T12:55:16.056Z,31.41
2018-08-04T12:57:43.302Z,31.22
2018-08-04T13:00:10.476Z,29.28
2018-08-04T13:02:37.618Z,28.51
2018-08-04T13:05:05.278Z,30.55
2018-08-04T13:07:32.589Z,26.95
2018-08-04T13:09:59.925Z,27.66
2018-08-04T13:12:27.144Z,24.76
2018-08-04T13:14:54.293Z,25.19
2018-08-04T13:17:21.442Z,29.49
2018-08-04T13:19:48.549Z,25.83
2018-08-04T13:22:15.850Z,25.90
2018-08-04T13:24:43.124Z,28.11
2018-08-04T13:27:10.342Z,28.45
2018-08-04T13:29:37.713Z,26.44
2018-08-04T13:32:04.874Z,27.95
2018-08-04T13:34:32.202Z,29.61
2018-08-04T13:37:02.666Z,27.97
2018-08-04T13:39:33.819Z,26.84
2018-08-04T13:42:01.024Z,27.05
2018-08-04T13:44:28.172Z,25.49
2018-08-04T13:46:55.434Z,28.20
2018-08-04T13:49:22.531Z,29.97
2018-08-04T13:51:50.545Z,26.01
2018-08-04T13:54:17.657Z,26.98
2018-08-04T13:56:44.790Z,27.24
2018-08-04T13:59:12.359Z,28.94
2018-08-04T14:01:39.507Z,28.42
2018-08-04T14:04:06.639Z,28.53
2018-08-04T14:06:33.867Z,25.28
2018-08-04T14:09:01.140Z,28.03
2018-08-04T14:11:28.388Z,28.82
2018-08-04T14:13:55.854Z,28.67
2018-08-04T14:16:22.968Z,27.57
2018-08-04T14:18:50.110Z,29.98
2018-08-04T14:21:17.288Z,29.72
2018-08-04T14:23:44.517Z,29.45
2018-08-04T14:26:11.646Z,27.80
2018-08-04T14:28:38.855Z,30.99
2018-08-04T14:31:05.964Z,27.16
2018-08-04T14:33:33.149Z,28.60
2018-08-04T14:36:00.461Z,27.77
2018-08-04T14:38:27.598Z,29.07
2018-08-04T14:40:54.752Z,27.56
2018-08-04T14:43:21.945Z,27.03
2018-08-04T14:45:49.064Z,26.72
2018-08-04T14:48:16.316Z,26.48
2018-08-04T14:50:44.576Z,25.00
2018-08-04T14:53:11.703Z,24.83
2018-08-04T14:55:38.832Z,25.49
2018-08-04T14:58:07.246Z,25.79
2018-08-04T15:00:34.800Z,27.45
2018-08-04T15:03:01.909Z,26.25
2018-08-04T15:05:29.159Z,26.99
2018-08-04T15:07:56.266Z,29.24
2018-08-04T15:10:23.597Z,28.07
2018-08-04T15:12:50.911Z,29.09
2018-08-04T15:15:18.046Z,29.32
2018-08-04T15:17:45.308Z,28.06
2018-08-04T15:20:13.373Z,29.82
2018-08-04T15:22:40.632Z,30.14
2018-08-04T15:25:08.116Z,29.61
2018-08-04T15:27:35.755Z,30.18
2018-08-04T15:30:03.054Z,29.93
2018-08-04T15:32:30.231Z,28.59
2018-08-04T15:34:57.879Z,28.88
2018-08-04T15:37:25.193Z,30.37
2018-08-04T15:39:52.339Z,29.38
2018-08-04T15:42:19.520Z,28.90
2018-08-04T15:44:46.851Z,29.35
2018-08-04T15:47:13.975Z,29.05
2018-08-04T15:49:41.964Z,30.63
2018-08-04T15:52:09.098Z,31.20
2018-08-04T15:54:36.574Z,31.23
2018-08-04T15:57:03.712Z,32.66
2018-08-04T15:59:30.859Z,29.60
2018-08-04T16:01:58.132Z,31.60
2018-08-04T16:04:25.286Z,31.26
2018-08-04T16:06:52.419Z,30.73
2018-08-04T16:09:19.523Z,29.86
2018-08-04T16:11:46.677Z,30.18
2018-08-04T16:14:13.912Z,29.94
2018-08-04T16:16:43.164Z,30.74
2018-08-04T16:19:10.622Z,31.35
2018-08-04T16:21:37.770Z,30.79
2018-08-04T16:24:04.985Z,30.36
2018-08-04T16:26:32.347Z,29.55
2018-08-04T16:28:59.485Z,31.50
2018-08-04T16:31:26.611Z,29.79
2018-08-04T16:33:54.249Z,30.98
2018-08-04T16:36:22.541Z,30.60
2018-08-04T16:38:50.059Z,29.71
2018-08-04T16:41:17.213Z,31.46
2018-08-04T16:43:44.326Z,34.42
2018-08-04T16:46:11.484Z,33.35
2018-08-04T16:48:38.611Z,34.14
2018-08-04T16:51:05.864Z,34.04
2018-08-04T16:53:32.982Z,35.54
2018-08-04T16:56:00.514Z,35.75
2018-08-04T16:58:27.682Z,35.47
2018-08-04T17:00:54.829Z,36.35
2018-08-04T17:03:22.157Z,36.64
2018-08-04T17:05:49.404Z,36.20
2018-08-04T17:08:16.521Z,36.54
2018-08-04T17:10:43.723Z,36.63
2018-08-04T17:13:10.842Z,36.94
2018-08-04T17:15:38.124Z,37.57
2018-08-04T17:18:05.354Z,38.29
2018-08-04T17:20:32.560Z,37.45
2018-08-04T17:22:59.722Z,37.85
2018-08-04T17:25:26.921Z,38.23
2018-08-04T17:27:54.914Z,38.74
2018-08-04T17:30:22.056Z,38.73
2018-08-04T17:32:49.248Z,39.31
2018-08-04T17:35:16.387Z,39.11
2018-08-04T17:37:43.661Z,39.87
2018-08-04T17:40:10.965Z,40.71
2018-08-04T17:42:38.156Z,41.26
2018-08-04T17:45:05.620Z,40.74
2018-08-04T17:47:32.784Z,40.97
2018-08-04T17:50:00.484Z,41.40
2018-08-04T17:52:27.787Z,41.69
2018-08-04T17:54:55.004Z,40.75
2018-08-04T17:57:22.252Z,41.41
2018-08-04T17:59:49.346Z,41.69
2018-08-04T18:02:16.513Z,41.72
2018-08-04T18:04:43.791Z,41.09
2018-08-04T18:07:10.920Z,41.40
2018-08-04T18:09:38.120Z,42.08
2018-08-04T18:12:05.267Z,42.57
2018-08-04T18:14:32.405Z,42.53
2018-08-04T18:16:59.717Z,42.67
2018-08-04T18:19:27.040Z,43.10
2018-08-04T18:21:54.222Z,43.66
2018-08-04T18:24:21.427Z,44.57
2018-08-04T18:26:48.536Z,45.95
2018-08-04T18:29:15.791Z,44.46
2018-08-04T18:31:43.059Z,45.85
2018-08-04T18:34:10.165Z,45.93
2018-08-04T18:36:37.361Z,46.92
2018-08-04T18:39:06.625Z,48.13
2018-08-04T18:41:33.860Z,49.33
2018-08-04T18:44:01.019Z,48.81
2018-08-04T18:46:28.178Z,48.28
2018-08-04T18:48:55.342Z,47.76
2018-08-04T18:51:22.488Z,48.31
2018-08-04T18:53:49.827Z,50.26
2018-08-04T18:56:16.956Z,51.84
2018-08-04T18:58:44.066Z,51.92
2018-08-04T19:01:11.598Z,50.58
2018-08-04T19:03:38.763Z,51.17
2018-08-04T19:06:06.089Z,51.66
2018-08-04T19:08:33.367Z,50.56
2018-08-04T19:11:00.487Z,51.75
2018-08-04T19:13:27.687Z,52.05
2018-08-04T19:15:54.943Z,52.98
2018-08-04T19:18:22.167Z,54.49
2018-08-04T19:20:49.376Z,53.72
2018-08-04T19:23:16.647Z,55.25
2018-08-04T19:25:43.783Z,55.81
2018-08-04T19:28:10.989Z,56.38
2018-08-04T19:30:43.915Z,57.30
2018-08-04T19:33:11.072Z,57.85
2018-08-04T19:35:38.234Z,58.11
2018-08-04T19:38:05.431Z,59.39
2018-08-04T19:40:32.606Z,57.96
2018-08-04T19:42:59.884Z,58.05
2018-08-04T19:45:27.033Z,57.47
2018-08-04T19:47:54.238Z,58.77
2018-08-04T19:50:21.633Z,58.68
2018-08-04T19:52:48.880Z,57.63
2018-08-04T19:55:17.253Z,57.35
2018-08-04T19:57:44.386Z,58.13
2018-08-04T20:00:11.609Z,58.00
2018-08-04T20:02:39.018Z,57.06
2018-08-04T20:05:06.176Z,57.44
2018-08-04T20:07:34.331Z,58.05
2018-08-04T20:10:01.810Z,58.74
2018-08-04T20:12:28.993Z,58.65
2018-08-04T20:14:56.163Z,57.84
2018-08-04T20:17:23.808Z,58.77
2018-08-04T20:19:51.725Z,58.93
2018-08-04T20:22:19.742Z,59.09
2018-08-04T20:24:46.922Z,58.88
2018-08-04T20:27:14.244Z,59.55
2018-08-04T20:29:41.464Z,59.37
2018-08-04T20:32:09.020Z,59.78
2018-08-04T20:34:36.671Z,60.24
2018-08-04T20:37:04.062Z,61.58
2018-08-04T20:39:31.345Z,60.97
2018-08-04T20:41:58.621Z,61.33
2018-08-04T20:44:26.073Z,61.57
2018-08-04T20:46:54.634Z,61.54
2018-08-04T20:49:25.673Z,62.30
2018-08-04T20:51:52.826Z,62.03
2018-08-04T20:54:20.025Z,62.20
2018-08-04T20:56:47.372Z,63.62
2018-08-04T20:59:14.866Z,63.52
2018-08-04T21:01:49.845Z,62.97
2018-08-04T21:04:17.165Z,64.71
2018-08-04T21:06:44.363Z,64.73
2018-08-04T21:09:12.235Z,65.30
2018-08-04T21:11:45.210Z,66.15
2018-08-04T21:14:12.424Z,66.06
2018-08-04T21:16:40.126Z,66.61
2018-08-04T21:19:07.271Z,65.82
2018-08-04T21:21:34.611Z,67.08
2018-08-04T21:24:01.753Z,66.65
2018-08-04T21:26:28.914Z,67.28
2018-08-04T21:28:56.110Z,68.00
2018-08-04T21:31:23.260Z,67.08
2018-08-04T21:33:50.509Z,67.67
2018-08-04T21:36:17.698Z,68.32
2018-08-04T21:38:44.839Z,69.11
2018-08-04T21:41:11.932Z,67.96
2018-08-04T21:43:39.108Z,68.38
2018-08-04T21:46:06.392Z,68.64
2018-08-04T21:48:33.665Z,68.40
2018-08-04T21:51:00.876Z,68.52
2018-08-04T21:53:28.010Z,69.85
2018-08-04T21:55:55.160Z,70.07
2018-08-04T21:58:22.950Z,69.40
2018-08-04T22:00:55.875Z,70.86
2018-08-04T22:03:23.048Z,71.30
2018-08-04T22:05:50.201Z,71.07
2018-08-04T22:08:28.966Z,71.63
2018-08-04T22:10:56.114Z,71.51
2018-08-04T22:13:23.261Z,71.80
2018-08-04T22:15:50.416Z,72.42
2018-08-04T22:18:17.536Z,72.17
2018-08-04T22:20:45.235Z,73.07
2018-08-04T22:23:12.455Z,73.24
2018-08-04T22:25:39.621Z,73.53
2018-08-04T22:28:06.771Z,73.59
2018-08-04T22:30:33.948Z,73.87
2018-08-04T22:33:01.245Z,73.84
2018-08-04T22:35:28.408Z,74.64
2018-08-04T22:37:55.614Z,74.31
2018-08-04T22:40:22.740Z,74.41
2018-08-04T22:42:49.867Z,74.18
2018-08-04T22:46:00.325Z,73.48
2018-08-04T22:48:27.518Z,73.92
2018-08-04T22:50:54.760Z,73.03
2018-08-04T22:53:21.973Z,74.14
2018-08-04T22:55:49.203Z,74.00
2018-08-04T22:58:16.411Z,73.62
2018-08-04T23:00:44.327Z,73.55
2018-08-04T23:03:11.975Z,74.08
2018-08-04T23:05:39.150Z,74.67
2018-08-04T23:08:06.728Z,74.83
2018-08-04T23:10:34.260Z,75.17
2018-08-04T23:13:01.383Z,74.62
2018-08-04T23:15:29.031Z,74.41
2018-08-04T23:17:56.244Z,74.87
2018-08-04T23:20:23.482Z,75.10
2018-08-04T23:22:51.023Z,75.72
2018-08-04T23:25:18.464Z,75.60
2018-08-04T23:27:45.613Z,76.25
2018-08-04T23:30:12.896Z,76.29
2018-08-04T23:32:40.124Z,75.92
2018-08-04T23:35:07.326Z,76.11
2018-08-04T23:37:34.537Z,76.21
2018-08-04T23:40:01.658Z,76.42
2018-08-04T23:42:28.789Z,76.67
2018-08-04T23:44:56.053Z,76.38
2018-08-04T23:47:23.254Z,77.18
2018-08-04T23:49:50.403Z,76.71
2018-08-04T23:52:17.582Z,77.62
2018-08-04T23:54:44.701Z,76.93
2018-08-04T23:57:11.930Z,77.98
2018-08-04T23:59:39.140Z,77.47
